createdAt,value
2019-05-26T00:00:29.118Z,11.07
2019-05-26T00:02:58.057Z,8.37
2019-05-26T00:05:27.011Z,9.53
2019-05-26T00:07:55.944Z,9.40
2019-05-26T00:10:24.887Z,9.33
2019-05-26T00:12:53.818Z,8.70
2019-05-26T00:15:22.759Z,10.73
2019-05-26T00:17:51.701Z,7.77
2019-05-26T00:20:20.670Z,9.80
2019-05-26T00:22:49.616Z,8.93
2019-05-26T00:25:18.559Z,12.13
2019-05-26T00:27:47.567Z,8.17
2019-05-26T00:30:16.702Z,11.10
2019-05-26T00:32:45.637Z,8.20
2019-05-26T00:35:14.927Z,9.67
2019-05-26T00:37:49.952Z,13.13
2019-05-26T00:40:14.697Z,10.37
2019-05-26T00:42:43.663Z,10.33
2019-05-26T00:45:12.924Z,9.97
2019-05-26T00:47:41.887Z,11.77
2019-05-26T00:50:11.083Z,9.10
2019-05-26T00:52:40.131Z,10.27
2019-05-26T00:55:10.214Z,9.23
2019-05-26T00:57:39.145Z,9.80
2019-05-26T01:00:09.656Z,9.80
2019-05-26T01:02:38.775Z,11.17
2019-05-26T01:05:07.988Z,9.40
2019-05-26T01:07:38.281Z,8.30
2019-05-26T01:10:07.656Z,10.10
2019-05-26T01:12:36.591Z,9.60
2019-05-26T01:15:06.610Z,7.60
2019-05-26T01:17:36.618Z,8.13
2019-05-26T01:20:05.641Z,9.43
2019-05-26T01:22:34.575Z,11.13
2019-05-26T01:25:05.393Z,9.47
2019-05-26T01:27:35.465Z,9.90
2019-05-26T01:30:07.697Z,10.90
2019-05-26T01:32:37.599Z,11.53
2019-05-26T01:35:06.834Z,9.83
2019-05-26T01:37:37.135Z,12.27
2019-05-26T01:40:06.070Z,9.83
2019-05-26T01:42:35.024Z,9.10
2019-05-26T01:45:05.249Z,10.40
2019-05-26T01:47:34.195Z,9.17
2019-05-26T01:50:04.395Z,9.50
2019-05-26T01:52:33.346Z,10.07
2019-05-26T01:55:02.281Z,11.13
2019-05-26T01:57:31.307Z,9.80
2019-05-26T02:00:00.243Z,8.63
2019-05-26T02:02:29.203Z,8.13
2019-05-26T02:04:58.150Z,6.83
2019-05-26T02:07:27.083Z,8.80
2019-05-26T02:09:56.029Z,10.43
2019-05-26T02:12:24.975Z,8.83
2019-05-26T02:14:53.917Z,9.93
2019-05-26T02:17:22.863Z,9.13
2019-05-26T02:19:51.793Z,10.03
2019-05-26T02:22:21.902Z,9.87
2019-05-26T02:24:50.930Z,7.70
2019-05-26T02:27:19.933Z,9.47
2019-05-26T02:29:48.929Z,9.53
2019-05-26T02:32:17.879Z,10.47
2019-05-26T02:34:46.814Z,9.20
2019-05-26T02:37:15.757Z,9.20
2019-05-26T02:39:44.703Z,8.90
2019-05-26T02:42:13.652Z,9.23
2019-05-26T02:44:42.594Z,8.13
2019-05-26T02:47:11.533Z,8.27
2019-05-26T02:49:40.468Z,8.70
2019-05-26T02:52:09.414Z,9.33
2019-05-26T02:54:38.346Z,10.13
2019-05-26T02:57:07.310Z,9.13
2019-05-26T02:59:36.232Z,7.30
2019-05-26T03:02:05.231Z,8.70
2019-05-26T03:04:34.167Z,10.30
2019-05-26T03:07:03.187Z,10.20
2019-05-26T03:09:32.801Z,11.80
2019-05-26T03:12:02.826Z,9.47
2019-05-26T03:14:33.030Z,10.23
2019-05-26T03:17:01.997Z,10.97
2019-05-26T03:19:32.462Z,9.90
2019-05-26T03:22:02.950Z,9.70
2019-05-26T03:24:32.639Z,10.03
2019-05-26T03:27:01.590Z,11.60
2019-05-26T03:29:30.536Z,13.40
2019-05-26T03:31:59.489Z,11.87
2019-05-26T03:34:28.441Z,10.83
2019-05-26T03:36:57.466Z,15.50
2019-05-26T03:39:43.805Z,9.53
2019-05-26T03:41:57.068Z,10.87
2019-05-26T03:44:26.074Z,9.77
2019-05-26T03:46:55.040Z,12.17
2019-05-26T03:49:23.980Z,8.63
2019-05-26T03:51:52.958Z,11.03
2019-05-26T03:54:22.017Z,10.37
2019-05-26T03:56:50.970Z,12.47
2019-05-26T03:59:19.908Z,12.03
2019-05-26T04:01:48.849Z,10.90
2019-05-26T04:04:17.784Z,12.00
2019-05-26T04:06:46.727Z,12.00
2019-05-26T04:09:15.689Z,12.73
2019-05-26T04:11:44.639Z,11.93
2019-05-26T04:14:13.614Z,11.93
2019-05-26T04:16:42.550Z,9.83
2019-05-26T04:19:11.494Z,9.87
2019-05-26T04:21:40.911Z,11.10
2019-05-26T04:24:09.864Z,10.13
2019-05-26T04:26:38.802Z,11.70
2019-05-26T04:29:07.754Z,9.40
2019-05-26T04:31:37.666Z,10.63
2019-05-26T04:34:06.622Z,10.40
2019-05-26T04:36:36.536Z,10.73
2019-05-26T04:39:06.272Z,10.80
2019-05-26T04:41:35.206Z,14.47
2019-05-26T04:44:04.149Z,10.80
2019-05-26T04:46:33.090Z,12.60
2019-05-26T04:49:02.039Z,10.70
2019-05-26T04:51:30.986Z,11.90
2019-05-26T04:53:59.923Z,12.10
2019-05-26T04:56:28.877Z,13.20
2019-05-26T04:58:57.834Z,12.63
2019-05-26T05:01:26.786Z,11.60
2019-05-26T05:03:55.742Z,10.63
2019-05-26T05:06:24.693Z,9.07
2019-05-26T05:08:53.723Z,11.37
2019-05-26T05:11:22.722Z,9.17
2019-05-26T05:13:51.665Z,10.07
2019-05-26T05:16:20.595Z,9.27
2019-05-26T05:18:49.563Z,9.07
2019-05-26T05:21:18.492Z,8.50
2019-05-26T05:23:48.369Z,8.80
2019-05-26T05:26:17.309Z,9.93
2019-05-26T05:28:46.264Z,11.93
2019-05-26T05:31:15.214Z,10.43
2019-05-26T05:33:44.164Z,13.07
2019-05-26T05:36:13.168Z,9.37
2019-05-26T05:38:42.112Z,10.60
2019-05-26T05:41:11.059Z,13.07
2019-05-26T05:43:40.018Z,12.73
2019-05-26T05:46:10.044Z,11.17
2019-05-26T05:48:39.058Z,12.07
2019-05-26T05:51:08.002Z,14.87
2019-05-26T05:53:36.953Z,15.13
2019-05-26T05:56:05.910Z,17.70
2019-05-26T05:58:34.931Z,14.30
2019-05-26T06:01:03.939Z,16.10
2019-05-26T06:03:32.887Z,17.90
2019-05-26T06:06:01.831Z,14.57
2019-05-26T06:08:30.791Z,18.43
2019-05-26T06:11:15.343Z,17.93
2019-05-26T06:13:30.379Z,21.33
2019-05-26T06:15:59.331Z,16.40
2019-05-26T06:18:28.300Z,17.30
2019-05-26T06:20:58.181Z,19.77
2019-05-26T06:23:28.112Z,18.30
2019-05-26T06:25:57.056Z,20.50
2019-05-26T06:28:26.011Z,22.47
2019-05-26T06:30:54.988Z,25.73
2019-05-26T06:33:23.956Z,21.13
2019-05-26T06:35:52.908Z,23.62
2019-05-26T06:38:21.942Z,23.35
2019-05-26T06:40:50.884Z,26.20
2019-05-26T06:43:19.856Z,24.77
2019-05-26T06:45:48.796Z,23.05
2019-05-26T06:48:17.755Z,24.77
2019-05-26T06:50:46.710Z,22.25
2019-05-26T06:53:15.656Z,21.37
2019-05-26T06:55:44.611Z,23.35
2019-05-26T06:58:13.568Z,22.75
2019-05-26T07:00:42.520Z,23.80
2019-05-26T07:03:11.483Z,21.07
2019-05-26T07:05:40.492Z,18.07
2019-05-26T07:08:09.430Z,17.45
2019-05-26T07:10:38.451Z,21.17
2019-05-26T07:13:07.411Z,21.30
2019-05-26T07:15:36.364Z,16.93
2019-05-26T07:18:05.323Z,17.92
2019-05-26T07:20:34.363Z,18.90
2019-05-26T07:23:03.571Z,19.40
2019-05-26T07:25:32.997Z,21.47
2019-05-26T07:28:01.965Z,20.83
2019-05-26T07:30:30.957Z,21.15
2019-05-26T07:32:59.887Z,19.05
2019-05-26T07:35:28.882Z,19.17
2019-05-26T07:37:57.879Z,22.15
2019-05-26T07:40:26.835Z,18.50
2019-05-26T07:42:55.784Z,17.77
2019-05-26T07:45:24.763Z,20.37
2019-05-26T07:47:53.709Z,20.70
2019-05-26T07:50:22.662Z,21.30
2019-05-26T07:52:51.682Z,23.12
2019-05-26T07:55:20.636Z,20.52
2019-05-26T07:57:49.593Z,26.55
2019-05-26T08:00:18.607Z,21.57
2019-05-26T08:02:47.555Z,23.87
2019-05-26T08:05:16.507Z,17.95
2019-05-26T08:07:45.477Z,22.35
2019-05-26T08:10:14.499Z,23.07
2019-05-26T08:12:43.440Z,22.75
2019-05-26T08:15:12.868Z,21.23
2019-05-26T08:17:41.816Z,21.40
2019-05-26T08:20:11.403Z,22.40
2019-05-26T08:22:40.511Z,23.52
2019-05-26T08:25:09.641Z,21.37
2019-05-26T08:27:38.579Z,24.32
2019-05-26T08:30:08.051Z,24.20
2019-05-26T08:32:38.034Z,24.37
2019-05-26T08:35:07.935Z,25.08
2019-05-26T08:37:36.871Z,24.27
2019-05-26T08:40:18.574Z,26.90
2019-05-26T08:42:48.305Z,26.80
2019-05-26T08:45:21.246Z,21.30
2019-05-26T08:47:48.292Z,22.00
2019-05-26T08:50:18.314Z,23.62
2019-05-26T08:52:48.336Z,21.93
2019-05-26T08:55:17.369Z,25.43
2019-05-26T08:57:46.318Z,21.48
2019-05-26T09:00:15.857Z,20.43
2019-05-26T09:02:44.795Z,23.20
2019-05-26T09:05:13.795Z,23.12
2019-05-26T09:07:42.747Z,25.40
2019-05-26T09:10:11.770Z,24.82
2019-05-26T09:12:40.718Z,22.13
2019-05-26T09:15:11.018Z,23.10
2019-05-26T09:17:39.981Z,24.77
2019-05-26T09:20:11.423Z,22.42
2019-05-26T09:22:40.143Z,27.75
2019-05-26T09:25:09.153Z,26.50
2019-05-26T09:27:38.102Z,24.63
2019-05-26T09:30:07.928Z,22.87
2019-05-26T09:32:36.892Z,22.93
2019-05-26T09:35:06.327Z,21.87
2019-05-26T09:37:35.335Z,24.40
2019-05-26T09:40:05.751Z,20.82
2019-05-26T09:42:35.684Z,19.30
2019-05-26T09:45:09.114Z,21.12
2019-05-26T09:47:38.084Z,19.50
2019-05-26T09:50:26.476Z,19.37
2019-05-26T09:52:55.557Z,19.73
2019-05-26T09:55:24.545Z,20.50
2019-05-26T09:58:08.361Z,20.35
2019-05-26T10:00:37.376Z,20.88
2019-05-26T10:03:15.147Z,19.37
2019-05-26T10:05:42.929Z,20.43
2019-05-26T10:08:11.879Z,19.20
2019-05-26T10:10:40.918Z,18.52
2019-05-26T10:13:09.879Z,21.33
2019-05-26T10:15:38.877Z,20.05
2019-05-26T10:18:07.823Z,19.30
2019-05-26T10:20:36.783Z,17.87
2019-05-26T10:23:05.795Z,17.65
2019-05-26T10:25:34.803Z,17.98
2019-05-26T10:28:03.836Z,16.12
2019-05-26T10:30:32.785Z,20.50
2019-05-26T10:33:01.899Z,15.83
2019-05-26T10:35:30.853Z,18.37
2019-05-26T10:38:00.721Z,15.25
2019-05-26T10:40:29.671Z,18.80
2019-05-26T10:42:58.619Z,17.15
2019-05-26T10:45:27.583Z,15.10
2019-05-26T10:47:56.537Z,16.30
2019-05-26T10:50:25.488Z,13.32
2019-05-26T10:52:54.453Z,15.23
2019-05-26T10:55:23.435Z,17.77
2019-05-26T10:57:52.443Z,13.80
2019-05-26T11:00:21.453Z,12.90
2019-05-26T11:02:50.480Z,13.45
2019-05-26T11:05:19.428Z,11.85
2019-05-26T11:07:48.468Z,10.88
2019-05-26T11:10:17.433Z,13.32
2019-05-26T11:12:46.380Z,10.90
2019-05-26T11:15:15.590Z,13.88
2019-05-26T11:17:44.555Z,12.35
2019-05-26T11:20:13.568Z,11.40
2019-05-26T11:22:43.358Z,13.95
2019-05-26T11:25:12.377Z,9.43
2019-05-26T11:27:42.344Z,10.10
2019-05-26T11:30:13.812Z,10.13
2019-05-26T11:32:42.774Z,13.48
2019-05-26T11:35:12.010Z,17.60
2019-05-26T11:37:40.952Z,13.30
2019-05-26T11:40:11.349Z,13.05
2019-05-26T11:42:40.303Z,12.07
2019-05-26T11:45:09.454Z,9.75
2019-05-26T11:47:39.377Z,11.93
2019-05-26T11:50:08.507Z,13.43
2019-05-26T11:52:37.459Z,10.58
2019-05-26T11:55:07.078Z,11.00
2019-05-26T11:57:37.196Z,9.95
2019-05-26T12:00:06.948Z,7.55
2019-05-26T12:02:37.005Z,6.85
2019-05-26T12:05:06.604Z,5.85
2019-05-26T12:07:35.549Z,7.62
2019-05-26T12:10:07.677Z,8.50
2019-05-26T12:12:36.674Z,6.85
2019-05-26T12:15:07.484Z,6.30
2019-05-26T12:17:36.424Z,5.65
2019-05-26T12:20:05.829Z,7.42
2019-05-26T12:22:34.874Z,11.20
2019-05-26T12:25:05.368Z,7.15
2019-05-26T12:27:34.323Z,4.95
2019-05-26T12:30:07.366Z,5.55
2019-05-26T12:32:36.366Z,6.58
2019-05-26T12:35:08.733Z,5.35
2019-05-26T12:37:37.733Z,6.00
2019-05-26T12:40:08.150Z,6.00
2019-05-26T12:42:37.120Z,6.90
2019-05-26T12:45:06.640Z,7.63
2019-05-26T12:47:35.591Z,5.22
2019-05-26T12:50:06.102Z,5.53
2019-05-26T12:52:35.109Z,7.37
2019-05-26T12:55:09.042Z,5.65
2019-05-26T12:57:36.228Z,5.25
2019-05-26T13:00:06.131Z,6.45
2019-05-26T13:02:35.171Z,7.62
2019-05-26T13:05:06.453Z,6.65
2019-05-26T13:07:35.424Z,8.55
2019-05-26T13:10:07.172Z,6.05
2019-05-26T13:12:36.120Z,5.17
2019-05-26T13:15:08.963Z,6.30
2019-05-26T13:17:37.979Z,5.42
2019-05-26T13:20:07.409Z,6.50
2019-05-26T13:22:36.480Z,5.42
2019-05-26T13:25:06.521Z,5.92
2019-05-26T13:27:35.503Z,6.20
2019-05-26T13:30:08.272Z,6.05
2019-05-26T13:32:37.234Z,6.90
2019-05-26T13:35:06.346Z,7.03
2019-05-26T13:37:35.284Z,4.92
2019-05-26T13:40:05.995Z,7.15
2019-05-26T13:42:38.091Z,8.85
2019-05-26T13:45:21.197Z,5.12
2019-05-26T13:47:38.099Z,5.25
2019-05-26T13:50:08.448Z,8.15
2019-05-26T13:52:37.450Z,4.55
2019-05-26T13:55:09.127Z,6.87
2019-05-26T13:57:39.042Z,5.50
2019-05-26T14:00:08.919Z,6.40
2019-05-26T14:02:38.031Z,5.97
2019-05-26T14:05:07.650Z,5.42
2019-05-26T14:07:36.584Z,9.05
2019-05-26T14:10:05.977Z,9.50
2019-05-26T14:12:34.980Z,7.05
2019-05-26T14:15:05.311Z,5.60
2019-05-26T14:17:35.259Z,7.80
2019-05-26T14:20:06.071Z,5.45
2019-05-26T14:22:34.972Z,12.50
2019-05-26T14:25:04.900Z,5.78
2019-05-26T14:27:33.831Z,6.83
2019-05-26T14:30:03.746Z,6.50
2019-05-26T14:32:32.693Z,5.45
2019-05-26T14:35:01.720Z,5.70
2019-05-26T14:37:30.688Z,5.80
2019-05-26T14:39:59.643Z,4.97
2019-05-26T14:42:29.585Z,6.37
2019-05-26T14:44:58.533Z,5.00
2019-05-26T14:47:27.639Z,6.05
2019-05-26T14:49:56.592Z,7.35
2019-05-26T14:52:25.552Z,4.17
2019-05-26T14:54:55.473Z,5.28
2019-05-26T14:57:24.444Z,4.90
2019-05-26T14:59:53.450Z,3.90
2019-05-26T15:02:22.462Z,6.45
2019-05-26T15:04:51.409Z,4.87
2019-05-26T15:07:20.347Z,7.30
2019-05-26T15:09:49.423Z,4.85
2019-05-26T15:12:18.434Z,7.45
2019-05-26T15:14:47.385Z,5.20
2019-05-26T15:17:16.333Z,9.08
2019-05-26T15:19:45.290Z,4.65
2019-05-26T15:22:14.228Z,6.83
2019-05-26T15:24:43.177Z,4.45
2019-05-26T15:27:12.115Z,4.80
2019-05-26T15:29:41.075Z,6.67
2019-05-26T15:32:10.023Z,4.30
2019-05-26T15:34:38.959Z,6.37
2019-05-26T15:37:07.899Z,4.53
2019-05-26T15:39:36.856Z,7.33
2019-05-26T15:42:08.401Z,6.03
2019-05-26T15:44:38.534Z,5.58
2019-05-26T15:47:07.515Z,7.30
2019-05-26T15:49:36.483Z,7.25
2019-05-26T15:52:06.384Z,6.78
2019-05-26T15:54:35.353Z,11.60
2019-05-26T15:57:04.297Z,12.00
2019-05-26T15:59:33.252Z,6.97
2019-05-26T16:02:02.190Z,8.45
2019-05-26T16:04:31.163Z,7.33
2019-05-26T16:07:00.119Z,7.50
2019-05-26T16:09:29.123Z,9.48
2019-05-26T16:11:58.076Z,8.83
2019-05-26T16:14:27.020Z,6.08
2019-05-26T16:16:56.042Z,7.17
2019-05-26T16:19:25.007Z,7.83
2019-05-26T16:21:53.948Z,11.68
2019-05-26T16:24:22.900Z,9.40
2019-05-26T16:26:51.849Z,7.67
2019-05-26T16:29:20.796Z,9.48
2019-05-26T16:31:49.778Z,8.00
2019-05-26T16:34:18.814Z,9.85
2019-05-26T16:36:48.763Z,6.67
2019-05-26T16:39:17.750Z,8.88
2019-05-26T16:41:46.746Z,7.10
2019-05-26T16:44:15.721Z,7.25
2019-05-26T16:46:56.154Z,9.63
2019-05-26T16:49:15.311Z,8.75
2019-05-26T16:51:44.272Z,9.38
2019-05-26T16:54:13.223Z,7.70
2019-05-26T16:56:42.175Z,7.08
2019-05-26T16:59:11.126Z,10.15
2019-05-26T17:01:41.079Z,10.08
2019-05-26T17:04:10.021Z,8.90
2019-05-26T17:06:38.997Z,6.95
2019-05-26T17:09:08.219Z,8.88
2019-05-26T17:11:38.714Z,10.70
2019-05-26T17:14:07.655Z,8.98
2019-05-26T17:16:37.548Z,4.70
2019-05-26T17:19:06.476Z,8.48
2019-05-26T17:21:35.424Z,7.30
2019-05-26T17:24:04.500Z,8.58
2019-05-26T17:26:33.468Z,7.33
2019-05-26T17:29:02.433Z,9.25
2019-05-26T17:31:31.384Z,9.05
2019-05-26T17:34:00.322Z,8.38
2019-05-26T17:36:29.286Z,9.60
2019-05-26T17:38:59.202Z,11.20
2019-05-26T17:41:28.139Z,6.92
2019-05-26T17:43:57.068Z,6.67
2019-05-26T17:46:26.024Z,9.38
2019-05-26T17:48:54.967Z,7.30
2019-05-26T17:51:23.981Z,8.88
2019-05-26T17:53:52.929Z,6.30
2019-05-26T17:56:21.882Z,9.00
2019-05-26T17:58:51.796Z,8.13
2019-05-26T18:01:20.749Z,9.53
2019-05-26T18:03:49.677Z,9.03
2019-05-26T18:06:18.641Z,6.33
2019-05-26T18:08:47.607Z,8.33
2019-05-26T18:11:16.544Z,7.70
2019-05-26T18:13:46.600Z,6.92
2019-05-26T18:16:16.894Z,6.83
2019-05-26T18:18:45.837Z,8.28
2019-05-26T18:21:14.796Z,6.35
2019-05-26T18:23:43.735Z,7.50
2019-05-26T18:26:12.679Z,6.72
2019-05-26T18:28:42.532Z,9.15
2019-05-26T18:31:11.480Z,5.78
2019-05-26T18:33:40.415Z,7.58
2019-05-26T18:38:38.531Z,8.08
2019-05-26T18:41:07.483Z,9.03
2019-05-26T18:43:36.439Z,8.75
2019-05-26T18:46:05.395Z,7.13
2019-05-26T18:48:34.418Z,9.88
2019-05-26T18:51:03.352Z,7.67
2019-05-26T18:53:32.330Z,8.28
2019-05-26T18:56:01.277Z,6.47
2019-05-26T18:58:30.215Z,7.87
2019-05-26T19:00:59.178Z,9.18
2019-05-26T19:03:28.121Z,6.75
2019-05-26T19:05:57.084Z,5.60
2019-05-26T19:08:26.952Z,9.50
2019-05-26T19:11:01.964Z,9.35
2019-05-26T19:13:31.031Z,6.92
2019-05-26T19:15:59.981Z,5.60
2019-05-26T19:18:28.918Z,7.10
2019-05-26T19:21:00.989Z,8.15
2019-05-26T19:23:34.013Z,7.28
2019-05-26T19:26:02.966Z,5.75
2019-05-26T19:28:34.864Z,8.75
2019-05-26T19:31:03.840Z,7.70
2019-05-26T19:33:33.760Z,6.97
2019-05-26T19:36:07.887Z,7.33
2019-05-26T19:38:34.328Z,5.83
2019-05-26T19:41:03.275Z,6.03
2019-05-26T19:43:32.304Z,7.55
2019-05-26T19:46:01.286Z,6.08
2019-05-26T19:48:36.785Z,6.92
2019-05-26T19:51:01.287Z,9.25
2019-05-26T19:53:30.309Z,7.35
2019-05-26T19:55:59.259Z,8.48
2019-05-26T19:58:28.761Z,6.15
2019-05-26T20:00:57.920Z,6.30
2019-05-26T20:03:26.929Z,7.15
2019-05-26T20:05:55.862Z,8.88
2019-05-26T20:08:24.837Z,7.12
2019-05-26T20:10:53.849Z,10.55
2019-05-26T20:13:22.797Z,7.15
2019-05-26T20:15:51.747Z,7.25
2019-05-26T20:18:20.784Z,6.95
2019-05-26T20:20:49.727Z,8.58
2019-05-26T20:23:18.679Z,7.12
2019-05-26T20:25:47.618Z,6.67
2019-05-26T20:28:16.556Z,7.25
2019-05-26T20:30:45.502Z,6.92
2019-05-26T20:33:15.511Z,8.40
2019-05-26T20:35:47.381Z,7.30
2019-05-26T20:38:16.402Z,6.45
2019-05-26T20:41:04.689Z,8.00
2019-05-26T20:43:33.639Z,7.67
2019-05-26T20:46:03.511Z,8.68
2019-05-26T20:48:32.468Z,7.40
2019-05-26T20:51:01.416Z,10.88
2019-05-26T20:53:30.368Z,8.65
2019-05-26T20:55:59.343Z,8.58
2019-05-26T20:58:28.848Z,9.70
2019-05-26T21:00:57.816Z,7.28
2019-05-26T21:03:26.792Z,7.37
2019-05-26T21:05:55.759Z,9.78
2019-05-26T21:08:25.686Z,10.15
2019-05-26T21:10:54.642Z,9.30
2019-05-26T21:13:23.680Z,8.05
2019-05-26T21:15:52.635Z,8.05
2019-05-26T21:18:21.583Z,7.50
2019-05-26T21:20:50.525Z,7.47
2019-05-26T21:23:22.531Z,8.73
2019-05-26T21:25:50.128Z,7.58
2019-05-26T21:28:19.101Z,8.00
2019-05-26T21:30:48.060Z,7.87
2019-05-26T21:33:17.093Z,10.43
2019-05-26T21:35:46.039Z,7.25
2019-05-26T21:38:14.995Z,8.28
2019-05-26T21:40:43.927Z,8.20
2019-05-26T21:43:12.869Z,6.72
2019-05-26T21:45:41.820Z,9.95
2019-05-26T21:48:10.774Z,7.87
2019-05-26T21:50:39.729Z,8.73
2019-05-26T21:53:08.712Z,8.33
2019-05-26T21:55:37.723Z,11.12
2019-05-26T21:58:06.681Z,9.65
2019-05-26T22:00:37.353Z,7.60
2019-05-26T22:03:06.418Z,9.40
2019-05-26T22:05:35.379Z,7.00
2019-05-26T22:08:04.400Z,9.50
2019-05-26T22:10:33.352Z,9.10
2019-05-26T22:13:02.333Z,9.10
2019-05-26T22:15:31.323Z,6.85
2019-05-26T22:18:00.271Z,7.08
2019-05-26T22:20:29.211Z,8.78
2019-05-26T22:22:58.177Z,7.97
2019-05-26T22:25:27.106Z,8.25
2019-05-26T22:27:56.065Z,8.25
2019-05-26T22:30:25.000Z,7.15
2019-05-26T22:32:53.980Z,7.17
2019-05-26T22:35:22.942Z,8.10
2019-05-26T22:37:57.147Z,10.85
2019-05-26T22:40:26.213Z,8.33
2019-05-26T22:42:55.163Z,8.25
2019-05-26T22:45:24.110Z,9.50
2019-05-26T22:47:53.055Z,9.88
2019-05-26T22:50:22.015Z,7.72
2019-05-26T22:52:50.943Z,8.20
2019-05-26T22:55:19.916Z,8.00
2019-05-26T22:57:48.851Z,9.25
2019-05-26T23:00:18.068Z,6.87
2019-05-26T23:02:47.062Z,7.58
2019-05-26T23:05:16.032Z,9.25
2019-05-26T23:07:44.969Z,9.98
2019-05-26T23:10:13.990Z,8.95
2019-05-26T23:12:42.949Z,10.90
2019-05-26T23:15:12.004Z,11.10
2019-05-26T23:17:40.957Z,11.05
2019-05-26T23:20:09.981Z,10.23
2019-05-26T23:22:38.937Z,11.10
2019-05-26T23:25:08.156Z,8.43
2019-05-26T23:27:37.156Z,9.05
2019-05-26T23:30:06.480Z,16.10
2019-05-26T23:32:35.423Z,8.85
2019-05-26T23:35:07.324Z,10.03
2019-05-26T23:37:36.326Z,10.15
2019-05-26T23:40:06.156Z,9.40
2019-05-26T23:42:35.120Z,10.05
2019-05-26T23:45:07.239Z,8.05
2019-05-26T23:47:36.185Z,11.93
2019-05-26T23:50:06.007Z,10.60
2019-05-26T23:52:34.963Z,13.25
2019-05-26T23:55:06.917Z,9.20
2019-05-26T23:57:35.887Z,10.38
